createdAt,value
2018-11-20T00:00:01.055Z,10.83
2018-11-20T00:01:43.407Z,12.83
2018-11-20T00:03:25.750Z,13.17
2018-11-20T00:05:08.057Z,12.50
2018-11-20T00:06:50.424Z,12.53
2018-11-20T00:08:32.775Z,12.93
2018-11-20T00:10:15.090Z,12.50
2018-11-20T00:11:57.415Z,13.10
2018-11-20T00:13:39.753Z,12.57
2018-11-20T00:15:22.120Z,11.23
2018-11-20T00:17:04.472Z,11.73
2018-11-20T00:18:46.847Z,11.30
2018-11-20T00:20:29.218Z,12.93
2018-11-20T00:22:11.773Z,13.80
2018-11-20T00:23:54.111Z,13.90
2018-11-20T00:25:36.459Z,11.07
2018-11-20T00:27:18.794Z,12.67
2018-11-20T00:28:53.870Z,13.17
2018-11-20T00:30:36.208Z,13.00
2018-11-20T00:32:18.540Z,15.70
2018-11-20T00:34:00.874Z,13.33
2018-11-20T00:35:43.228Z,14.00
2018-11-20T00:37:25.516Z,12.40
2018-11-20T00:38:55.750Z,14.03
2018-11-20T00:40:38.129Z,13.33
2018-11-20T00:42:20.451Z,16.27
2018-11-20T00:44:02.762Z,13.33
2018-11-20T00:45:45.080Z,15.07
2018-11-20T00:47:27.415Z,15.23
2018-11-20T00:49:09.728Z,13.63
2018-11-20T00:50:52.055Z,14.60
2018-11-20T00:52:25.844Z,13.93
2018-11-20T00:54:08.426Z,14.77
2018-11-20T00:56:04.088Z,14.77
2018-11-20T00:57:46.383Z,14.80
2018-11-20T00:59:28.713Z,16.07
2018-11-20T01:01:11.046Z,14.93
2018-11-20T01:02:53.344Z,14.40
2018-11-20T01:04:35.638Z,17.27
2018-11-20T01:06:18.011Z,12.57
2018-11-20T01:08:00.769Z,15.37
2018-11-20T01:09:43.074Z,14.70
2018-11-20T01:11:25.461Z,15.80
2018-11-20T01:13:07.773Z,16.90
2018-11-20T01:14:40.320Z,17.73
2018-11-20T01:16:22.751Z,14.67
2018-11-20T01:18:04.998Z,16.27
2018-11-20T01:19:47.327Z,14.43
2018-11-20T01:21:29.691Z,16.37
2018-11-20T01:23:11.991Z,15.40
2018-11-20T01:24:54.304Z,14.80
2018-11-20T01:26:36.628Z,15.63
2018-11-20T01:28:18.975Z,16.40
2018-11-20T01:30:01.290Z,15.47
2018-11-20T01:31:43.628Z,14.30
2018-11-20T01:33:25.967Z,14.13
2018-11-20T01:34:57.854Z,15.40
2018-11-20T01:36:40.261Z,13.53
2018-11-20T01:38:22.622Z,15.53
2018-11-20T01:40:04.971Z,16.27
2018-11-20T01:41:46.627Z,13.10
2018-11-20T01:43:28.966Z,18.60
2018-11-20T01:45:11.292Z,14.40
2018-11-20T01:46:53.641Z,15.30
2018-11-20T01:48:36.524Z,15.30
2018-11-20T01:50:18.799Z,13.07
2018-11-20T01:52:01.127Z,13.20
2018-11-20T01:53:43.466Z,14.47
2018-11-20T01:55:25.785Z,14.73
2018-11-20T01:57:08.125Z,14.30
2018-11-20T01:58:50.462Z,13.90
2018-11-20T02:00:32.778Z,15.33
2018-11-20T02:02:10.338Z,15.47
2018-11-20T02:03:52.676Z,14.33
2018-11-20T02:05:34.976Z,14.20
2018-11-20T02:07:12.527Z,14.77
2018-11-20T02:08:54.895Z,14.47
2018-11-20T02:10:37.204Z,15.00
2018-11-20T02:12:19.546Z,16.10
2018-11-20T02:14:02.638Z,13.93
2018-11-20T02:15:45.052Z,15.17
2018-11-20T02:17:28.836Z,15.20
2018-11-20T02:19:11.153Z,14.47
2018-11-20T02:20:54.477Z,16.13
2018-11-20T02:22:36.811Z,15.43
2018-11-20T02:24:19.112Z,15.87
2018-11-20T02:26:01.439Z,15.73
2018-11-20T02:27:43.718Z,14.83
2018-11-20T02:29:26.004Z,15.77
2018-11-20T02:31:08.325Z,15.50
2018-11-20T02:32:38.963Z,14.40
2018-11-20T02:34:21.598Z,16.73
2018-11-20T02:36:03.950Z,14.70
2018-11-20T02:37:46.241Z,15.80
2018-11-20T02:39:28.570Z,15.67
2018-11-20T02:41:10.878Z,14.90
2018-11-20T02:42:53.218Z,16.37
2018-11-20T02:44:35.550Z,13.10
2018-11-20T02:46:17.864Z,14.53
2018-11-20T02:48:00.261Z,14.37
2018-11-20T02:49:42.583Z,15.37
2018-11-20T02:51:24.951Z,12.07
2018-11-20T02:53:07.238Z,14.07
2018-11-20T02:54:45.896Z,19.70
2018-11-20T02:56:28.236Z,13.70
2018-11-20T02:58:10.529Z,13.63
2018-11-20T02:59:52.042Z,15.27
2018-11-20T03:01:34.368Z,14.80
2018-11-20T03:03:16.757Z,13.83
2018-11-20T03:04:59.075Z,14.80
2018-11-20T03:06:32.752Z,14.10
2018-11-20T03:08:15.411Z,15.40
2018-11-20T03:09:57.729Z,13.20
2018-11-20T03:11:40.017Z,13.40
2018-11-20T03:13:22.349Z,14.60
2018-11-20T03:15:04.722Z,15.97
2018-11-20T03:16:47.002Z,12.33
2018-11-20T03:18:29.328Z,12.73
2018-11-20T03:20:11.640Z,16.23
2018-11-20T03:21:53.943Z,13.67
2018-11-20T03:23:36.256Z,14.93
2018-11-20T03:25:18.575Z,14.00
2018-11-20T03:27:00.960Z,13.30
2018-11-20T03:28:43.211Z,13.73
2018-11-20T03:30:44.476Z,14.10
2018-11-20T03:32:26.799Z,14.30
2018-11-20T03:34:10.006Z,15.30
2018-11-20T03:35:52.380Z,12.93
2018-11-20T03:37:26.899Z,13.23
2018-11-20T03:39:09.208Z,14.57
2018-11-20T03:40:51.567Z,13.60
2018-11-20T03:42:33.879Z,14.47
2018-11-20T03:44:16.183Z,18.10
2018-11-20T03:45:58.551Z,17.73
2018-11-20T03:47:40.911Z,14.80
2018-11-20T03:49:23.177Z,13.23
2018-11-20T03:51:05.537Z,17.23
2018-11-20T03:52:47.856Z,15.87
2018-11-20T03:54:30.217Z,13.77
2018-11-20T03:56:12.633Z,14.23
2018-11-20T03:57:54.951Z,14.53
2018-11-20T03:59:37.256Z,15.60
2018-11-20T04:01:19.588Z,15.60
2018-11-20T04:03:01.897Z,15.43
2018-11-20T04:04:44.212Z,15.03
2018-11-20T04:06:26.530Z,17.43
2018-11-20T04:08:08.862Z,18.60
2018-11-20T04:09:51.383Z,16.57
2018-11-20T04:11:33.762Z,16.00
2018-11-20T04:13:23.429Z,14.73
2018-11-20T04:15:05.798Z,17.23
2018-11-20T04:16:48.151Z,19.60
2018-11-20T04:18:30.788Z,15.00
2018-11-20T04:20:13.162Z,19.50
2018-11-20T04:21:55.490Z,15.33
2018-11-20T04:23:37.818Z,13.43
2018-11-20T04:25:20.140Z,18.00
2018-11-20T04:27:02.471Z,15.67
2018-11-20T04:28:34.626Z,16.90
2018-11-20T04:30:35.858Z,17.37
2018-11-20T04:32:18.576Z,12.77
2018-11-20T04:34:00.952Z,15.90
2018-11-20T04:35:26.173Z,17.57
2018-11-20T04:36:56.038Z,15.53
2018-11-20T04:38:19.538Z,16.37
2018-11-20T04:39:45.715Z,14.87
2018-11-20T04:41:15.633Z,15.93
2018-11-20T04:42:37.855Z,15.57
2018-11-20T04:43:56.115Z,14.43
2018-11-20T04:45:22.617Z,22.40
2018-11-20T04:46:49.059Z,17.00
2018-11-20T04:48:21.354Z,17.03
2018-11-20T04:49:43.593Z,15.67
2018-11-20T04:51:18.831Z,17.53
2018-11-20T04:52:40.405Z,16.63
2018-11-20T04:54:02.659Z,14.30
2018-11-20T04:55:25.337Z,13.80
2018-11-20T04:56:51.463Z,16.03
2018-11-20T04:58:29.396Z,16.67
2018-11-20T05:00:11.206Z,16.80
2018-11-20T05:01:40.790Z,16.80
2018-11-20T05:03:03.358Z,14.83
2018-11-20T05:04:26.871Z,17.30
2018-11-20T05:06:05.810Z,17.20
2018-11-20T05:07:19.127Z,18.33
2018-11-20T05:08:54.786Z,17.20
2018-11-20T05:10:17.582Z,16.03
2018-11-20T05:11:31.474Z,16.13
2018-11-20T05:12:50.772Z,18.63
2018-11-20T05:14:13.087Z,16.37
2018-11-20T05:15:45.162Z,17.03
2018-11-20T05:17:06.341Z,16.07
2018-11-20T05:18:43.162Z,17.00
2018-11-20T05:20:09.331Z,16.57
2018-11-20T05:21:41.904Z,18.40
2018-11-20T05:23:17.345Z,14.87
2018-11-20T05:24:39.352Z,16.53
2018-11-20T05:26:01.745Z,15.53
2018-11-20T05:27:20.824Z,18.50
2018-11-20T05:28:43.006Z,18.07
2018-11-20T05:30:09.623Z,17.87
2018-11-20T05:31:35.862Z,17.23
2018-11-20T05:33:05.701Z,20.07
2018-11-20T05:34:47.179Z,18.03
2018-11-20T05:36:16.532Z,16.90
2018-11-20T05:37:45.668Z,19.93
2018-11-20T05:39:07.632Z,17.93
2018-11-20T05:40:19.456Z,19.20
2018-11-20T05:41:48.865Z,20.37
2018-11-20T05:43:15.260Z,18.90
2018-11-20T05:44:37.143Z,19.90
2018-11-20T05:45:59.494Z,19.53
2018-11-20T05:47:25.870Z,20.33
2018-11-20T05:49:07.694Z,18.17
2018-11-20T05:50:29.581Z,21.00
2018-11-20T05:51:55.851Z,20.83
2018-11-20T05:53:22.164Z,18.43
2018-11-20T05:54:44.355Z,21.30
2018-11-20T05:55:59.049Z,18.80
2018-11-20T05:57:40.118Z,20.50
2018-11-20T05:59:06.359Z,19.67
2018-11-20T06:00:18.599Z,21.53
2018-11-20T06:01:40.679Z,19.80
2018-11-20T06:03:04.096Z,20.83
2018-11-20T06:04:33.651Z,20.50
2018-11-20T06:05:48.593Z,21.30
2018-11-20T06:07:19.720Z,21.03
2018-11-20T06:08:41.889Z,23.10
2018-11-20T06:10:05.360Z,25.60
2018-11-20T06:11:47.097Z,25.00
2018-11-20T06:13:09.073Z,24.07
2018-11-20T06:14:50.776Z,26.40
2018-11-20T06:16:22.917Z,28.13
2018-11-20T06:17:45.083Z,23.70
2018-11-20T06:19:07.189Z,22.40
2018-11-20T06:20:33.890Z,23.80
2018-11-20T06:21:55.995Z,24.20
2018-11-20T06:23:16.433Z,26.13
2018-11-20T06:24:49.174Z,26.73
2018-11-20T06:26:11.075Z,25.97
2018-11-20T06:27:40.199Z,25.17
2018-11-20T06:29:02.302Z,24.30
2018-11-20T06:30:17.692Z,23.57
2018-11-20T06:31:50.160Z,27.53
2018-11-20T06:33:12.103Z,28.80
2018-11-20T06:34:38.412Z,24.60
2018-11-20T06:35:56.225Z,26.27
2018-11-20T06:37:27.518Z,23.77
2018-11-20T06:38:51.030Z,30.07
2018-11-20T06:40:05.509Z,29.80
2018-11-20T06:41:27.586Z,29.87
2018-11-20T06:43:08.915Z,28.23
2018-11-20T06:44:38.877Z,25.17
2018-11-20T06:46:11.487Z,26.60
2018-11-20T06:47:37.919Z,27.80
2018-11-20T06:49:01.336Z,29.37
2018-11-20T06:50:24.885Z,28.60
2018-11-20T06:51:59.590Z,27.40
2018-11-20T06:53:25.496Z,27.87
2018-11-20T06:54:54.819Z,26.73
2018-11-20T06:56:21.163Z,26.23
2018-11-20T06:57:56.873Z,28.80
2018-11-20T06:59:23.234Z,26.33
2018-11-20T07:00:45.477Z,24.83
2018-11-20T07:02:07.359Z,23.73
2018-11-20T07:03:29.526Z,24.20
2018-11-20T07:05:05.457Z,23.97
2018-11-20T07:06:44.063Z,27.47
2018-11-20T07:08:19.477Z,25.73
2018-11-20T07:09:51.790Z,26.20
2018-11-20T07:11:05.485Z,20.57
2018-11-20T07:12:38.118Z,24.87
2018-11-20T07:14:36.156Z,21.73
2018-11-20T07:16:05.894Z,24.83
2018-11-20T07:17:35.997Z,27.73
2018-11-20T07:18:57.352Z,23.70
2018-11-20T07:20:20.065Z,21.67
2018-11-20T07:21:51.134Z,20.43
2018-11-20T07:23:13.621Z,23.13
2018-11-20T07:24:46.292Z,21.77
2018-11-20T07:26:09.673Z,23.73
2018-11-20T07:27:36.138Z,22.63
2018-11-20T07:28:58.394Z,20.57
2018-11-20T07:30:39.824Z,21.30
2018-11-20T07:32:02.052Z,22.57
2018-11-20T07:33:29.645Z,21.83
2018-11-20T07:34:54.191Z,20.87
2018-11-20T07:36:16.534Z,20.60
2018-11-20T07:37:48.830Z,19.63
2018-11-20T07:39:14.827Z,22.20
2018-11-20T07:40:30.337Z,20.33
2018-11-20T07:41:48.573Z,22.60
2018-11-20T07:43:21.022Z,23.83
2018-11-20T07:44:39.682Z,25.83
2018-11-20T07:46:06.368Z,21.77
2018-11-20T07:47:32.876Z,21.00
2018-11-20T07:48:58.045Z,22.20
2018-11-20T07:50:30.648Z,23.30
2018-11-20T07:51:57.110Z,24.93
2018-11-20T07:53:31.890Z,22.37
2018-11-20T07:55:01.177Z,23.53
2018-11-20T07:56:24.654Z,23.77
2018-11-20T07:57:56.893Z,21.47
2018-11-20T07:59:37.908Z,21.93
2018-11-20T08:01:00.312Z,21.20
2018-11-20T08:02:23.885Z,24.13
2018-11-20T08:03:40.128Z,23.67
2018-11-20T08:05:01.964Z,23.10
2018-11-20T08:06:28.206Z,24.90
2018-11-20T08:07:50.253Z,25.13
2018-11-20T08:09:13.773Z,24.60
2018-11-20T08:10:40.121Z,26.00
2018-11-20T08:12:09.384Z,24.20
2018-11-20T08:13:30.344Z,26.23
2018-11-20T08:14:53.767Z,27.13
2018-11-20T08:16:14.911Z,25.47
2018-11-20T08:17:53.687Z,23.97
2018-11-20T08:19:15.892Z,27.97
2018-11-20T08:20:32.069Z,25.37
2018-11-20T08:22:10.739Z,25.10
2018-11-20T08:23:43.046Z,23.67
2018-11-20T08:25:06.562Z,26.03
2018-11-20T08:26:28.775Z,28.37
2018-11-20T08:27:55.185Z,26.17
2018-11-20T08:29:18.634Z,29.40
2018-11-20T08:30:41.376Z,24.50
2018-11-20T08:32:10.767Z,30.50
2018-11-20T08:33:33.163Z,27.10
2018-11-20T08:34:56.621Z,26.33
2018-11-20T08:36:26.057Z,23.63
2018-11-20T08:37:48.160Z,25.30
2018-11-20T08:39:11.660Z,21.80
2018-11-20T08:40:35.165Z,28.77
2018-11-20T08:42:01.615Z,23.47
2018-11-20T08:43:28.271Z,26.37
2018-11-20T08:44:50.481Z,26.63
2018-11-20T08:46:12.716Z,25.53
2018-11-20T08:47:36.220Z,24.47
2018-11-20T08:48:59.815Z,24.87
2018-11-20T08:50:32.461Z,26.33
2018-11-20T08:51:58.745Z,26.00
2018-11-20T08:53:28.425Z,25.30
2018-11-20T08:54:50.683Z,25.17
2018-11-20T08:56:13.168Z,23.17
2018-11-20T08:57:42.680Z,25.77
2018-11-20T08:59:12.270Z,26.47
2018-11-20T09:00:34.469Z,27.63
2018-11-20T09:01:57.958Z,26.50
2018-11-20T09:03:27.155Z,26.13
2018-11-20T09:04:49.652Z,26.33
2018-11-20T09:06:11.954Z,26.23
2018-11-20T09:07:35.402Z,24.37
2018-11-20T09:09:14.976Z,28.50
2018-11-20T09:10:32.298Z,25.70
2018-11-20T09:12:07.620Z,26.83
2018-11-20T09:13:35.052Z,23.73
2018-11-20T09:15:01.267Z,25.23
2018-11-20T09:16:28.201Z,26.23
2018-11-20T09:17:51.819Z,25.83
2018-11-20T09:19:18.146Z,26.33
2018-11-20T09:20:41.691Z,23.80
2018-11-20T09:22:05.134Z,26.43
2018-11-20T09:23:27.624Z,28.63
2018-11-20T09:24:54.146Z,23.13
2018-11-20T09:26:20.405Z,24.93
2018-11-20T09:27:53.037Z,25.43
2018-11-20T09:29:19.230Z,25.27
2018-11-20T09:30:41.449Z,25.40
2018-11-20T09:32:06.465Z,28.17
2018-11-20T09:33:32.753Z,25.70
2018-11-20T09:35:05.634Z,24.17
2018-11-20T09:36:28.391Z,21.53
2018-11-20T09:37:52.202Z,25.97
2018-11-20T09:39:13.111Z,24.43
2018-11-20T09:41:18.158Z,23.87
2018-11-20T09:42:40.483Z,24.13
2018-11-20T09:44:09.262Z,24.67
2018-11-20T09:45:52.158Z,25.77
2018-11-20T09:47:18.627Z,24.50
2018-11-20T09:48:41.996Z,23.97
2018-11-20T09:50:08.324Z,27.03
2018-11-20T09:51:37.650Z,24.60
2018-11-20T09:52:59.727Z,23.93
2018-11-20T09:54:21.057Z,27.27
2018-11-20T09:56:02.668Z,23.87
2018-11-20T09:57:20.076Z,25.97
2018-11-20T09:58:35.728Z,24.47
2018-11-20T09:59:58.074Z,24.97
2018-11-20T10:01:36.546Z,26.37
2018-11-20T10:03:05.973Z,21.73
2018-11-20T10:04:35.279Z,27.70
2018-11-20T10:06:01.569Z,23.87
2018-11-20T10:07:43.353Z,24.87
2018-11-20T10:09:12.791Z,25.20
2018-11-20T10:10:39.327Z,22.97
2018-11-20T10:12:02.784Z,23.60
2018-11-20T10:13:26.268Z,24.40
2018-11-20T10:14:58.854Z,24.00
2018-11-20T10:16:33.302Z,20.60
2018-11-20T10:17:55.353Z,24.40
2018-11-20T10:19:21.941Z,24.07
2018-11-20T10:20:45.453Z,25.80
2018-11-20T10:22:18.014Z,26.07
2018-11-20T10:23:39.910Z,26.13
2018-11-20T10:25:03.555Z,24.00
2018-11-20T10:26:25.676Z,24.17
2018-11-20T10:27:57.898Z,23.67
2018-11-20T10:29:44.841Z,24.47
2018-11-20T10:31:06.947Z,24.83
2018-11-20T10:32:29.211Z,21.73
2018-11-20T10:33:52.846Z,22.67
2018-11-20T10:35:18.972Z,24.07
2018-11-20T10:36:45.140Z,22.03
2018-11-20T10:38:08.006Z,23.53
2018-11-20T10:39:30.196Z,22.60
2018-11-20T10:42:40.345Z,23.93
2018-11-20T10:44:22.732Z,23.43
2018-11-20T10:46:05.138Z,24.73
2018-11-20T10:47:42.619Z,26.33
2018-11-20T10:49:24.953Z,21.20
2018-11-20T10:51:07.273Z,21.63
2018-11-20T10:52:49.654Z,21.50
2018-11-20T10:54:32.070Z,22.73
2018-11-20T10:56:08.681Z,22.10
2018-11-20T10:57:50.982Z,22.80
2018-11-20T10:59:33.401Z,23.83
2018-11-20T11:01:15.695Z,21.73
2018-11-20T11:02:57.991Z,23.13
2018-11-20T11:04:29.249Z,22.93
2018-11-20T11:06:11.646Z,22.00
2018-11-20T11:07:54.117Z,21.17
2018-11-20T11:09:36.645Z,20.27
2018-11-20T11:11:19.153Z,25.57
2018-11-20T11:13:01.498Z,24.80
2018-11-20T11:14:44.118Z,24.90
2018-11-20T11:16:26.437Z,24.97
2018-11-20T11:18:08.780Z,22.10
2018-11-20T11:19:51.063Z,23.17
2018-11-20T11:21:33.573Z,21.03
2018-11-20T11:23:15.932Z,27.73
2018-11-20T11:24:58.254Z,22.37
2018-11-20T11:26:40.631Z,21.77
2018-11-20T11:28:23.100Z,22.00
2018-11-20T11:30:05.408Z,23.30
2018-11-20T11:31:47.702Z,20.57
2018-11-20T11:33:30.082Z,24.40
2018-11-20T11:35:12.455Z,22.67
2018-11-20T11:36:54.767Z,23.80
2018-11-20T11:38:37.125Z,25.97
2018-11-20T11:40:19.470Z,24.83
2018-11-20T11:42:01.821Z,21.37
2018-11-20T11:43:44.192Z,21.57
2018-11-20T11:45:26.511Z,23.27
2018-11-20T11:47:08.874Z,26.10
2018-11-20T11:48:51.461Z,22.37
2018-11-20T11:50:33.826Z,22.73
2018-11-20T11:52:16.179Z,24.47
2018-11-20T11:53:58.583Z,22.83
2018-11-20T11:55:43.289Z,22.60
2018-11-20T11:57:25.587Z,27.27
2018-11-20T11:59:07.931Z,24.23
2018-11-20T12:00:50.301Z,26.07
2018-11-20T12:04:14.388Z,23.70
2018-11-20T12:05:56.755Z,21.57
2018-11-20T12:07:26.950Z,25.47
2018-11-20T12:09:09.310Z,25.63
2018-11-20T12:10:51.638Z,24.70
2018-11-20T12:12:33.997Z,25.47
2018-11-20T12:14:16.317Z,26.10
2018-11-20T12:15:58.665Z,25.50
2018-11-20T12:17:41.029Z,27.10
2018-11-20T12:19:14.448Z,23.33
2018-11-20T12:20:56.749Z,24.07
2018-11-20T12:22:39.086Z,27.27
2018-11-20T12:24:21.398Z,25.70
2018-11-20T12:26:03.730Z,26.37
2018-11-20T12:27:46.096Z,25.73
2018-11-20T12:29:28.404Z,24.60
2018-11-20T12:31:11.803Z,23.17
2018-11-20T12:32:53.208Z,25.73
2018-11-20T12:34:37.555Z,27.03
2018-11-20T12:36:17.970Z,24.20
2018-11-20T12:38:01.157Z,23.47
2018-11-20T12:39:45.703Z,25.83
2018-11-20T12:41:48.725Z,21.33
2018-11-20T12:43:18.243Z,24.80
2018-11-20T12:49:20.534Z,25.40
2018-11-20T12:53:24.001Z,22.13
2018-11-20T12:57:14.052Z,25.03
2018-11-20T12:59:02.633Z,27.83
2018-11-20T13:00:45.678Z,26.43
2018-11-20T13:02:30.906Z,26.30
2018-11-20T13:05:48.662Z,24.03
2018-11-20T13:09:31.467Z,27.53
2018-11-20T13:11:15.289Z,23.70
2018-11-20T13:13:07.077Z,22.63
2018-11-20T13:15:04.190Z,22.87
2018-11-20T13:16:41.088Z,23.87
2018-11-20T13:18:29.129Z,25.30
2018-11-20T13:20:23.075Z,25.97
2018-11-20T13:24:11.735Z,26.73
2018-11-20T13:25:53.911Z,24.80
2018-11-20T13:27:36.233Z,24.53
2018-11-20T13:29:18.566Z,27.53
2018-11-20T13:31:00.951Z,29.20
2018-11-20T13:32:43.305Z,22.03
2018-11-20T13:34:27.247Z,26.63
2018-11-20T13:36:08.001Z,25.97
2018-11-20T13:37:51.903Z,26.03
2018-11-20T13:39:33.487Z,25.27
2018-11-20T13:41:34.778Z,24.10
2018-11-20T13:43:17.117Z,24.10
2018-11-20T13:45:18.789Z,25.73
2018-11-20T13:47:00.773Z,26.90
2018-11-20T13:48:43.146Z,25.87
2018-11-20T13:50:26.205Z,23.73
2018-11-20T13:52:08.559Z,23.43
2018-11-20T13:53:52.140Z,23.93
2018-11-20T13:55:31.910Z,23.53
2018-11-20T13:57:12.829Z,25.73
2018-11-20T13:58:55.176Z,24.13
2018-11-20T14:00:37.491Z,21.80
2018-11-20T14:02:19.849Z,25.00
2018-11-20T14:04:02.220Z,23.83
2018-11-20T14:05:44.636Z,24.97
2018-11-20T14:07:27.046Z,23.90
2018-11-20T14:09:09.456Z,25.53
2018-11-20T14:10:51.761Z,23.20
2018-11-20T14:12:34.222Z,24.60
2018-11-20T14:14:07.269Z,26.00
2018-11-20T14:15:49.598Z,21.23
2018-11-20T14:17:50.880Z,25.23
2018-11-20T14:19:33.254Z,25.30
2018-11-20T14:21:15.576Z,22.47
2018-11-20T14:22:57.945Z,23.67
2018-11-20T14:24:40.322Z,24.37
2018-11-20T14:26:22.701Z,23.60
2018-11-20T14:28:05.031Z,22.67
2018-11-20T14:29:47.390Z,25.20
2018-11-20T14:31:29.750Z,27.30
2018-11-20T14:33:12.096Z,25.37
2018-11-20T14:34:54.442Z,26.07
2018-11-20T14:36:36.771Z,27.90
2018-11-20T14:38:19.106Z,28.77
2018-11-20T14:40:01.482Z,31.57
2018-11-20T14:41:43.795Z,28.80
2018-11-20T14:43:18.707Z,31.80
2018-11-20T14:45:01.061Z,30.23
2018-11-20T14:46:43.497Z,35.67
2018-11-20T14:48:25.872Z,29.43
2018-11-20T14:53:58.503Z,36.50
2018-11-20T14:55:44.640Z,35.47
2018-11-20T14:57:26.997Z,31.50
2018-11-20T14:59:09.345Z,36.20
2018-11-20T15:00:52.758Z,39.20
2018-11-20T15:02:35.206Z,36.73
2018-11-20T15:04:17.554Z,36.63
2018-11-20T15:05:59.927Z,38.17
2018-11-20T15:07:42.311Z,34.93
2018-11-20T15:09:26.796Z,44.30
2018-11-20T15:11:09.152Z,39.00
2018-11-20T15:12:51.726Z,40.77
2018-11-20T15:14:34.234Z,39.77
2018-11-20T15:16:18.446Z,42.70
2018-11-20T15:18:00.787Z,37.97
2018-11-20T15:19:43.234Z,41.77
2018-11-20T15:21:25.608Z,44.97
2018-11-20T15:23:08.022Z,44.23
2018-11-20T15:24:41.065Z,46.33
2018-11-20T15:26:23.857Z,44.37
2018-11-20T15:28:06.390Z,50.07
2018-11-20T15:29:48.605Z,45.83
2018-11-20T15:31:30.969Z,43.97
2018-11-20T15:33:13.438Z,43.23
2018-11-20T15:34:55.824Z,42.77
2018-11-20T15:36:38.162Z,40.83
2018-11-20T15:38:20.533Z,53.13
2018-11-20T15:40:02.890Z,48.73
2018-11-20T15:44:47.508Z,48.47
2018-11-20T15:46:31.355Z,48.30
2018-11-20T15:48:14.159Z,44.33
2018-11-20T15:49:57.664Z,43.03
2018-11-20T15:51:40.996Z,42.50
2018-11-20T15:55:15.022Z,45.70
2018-11-20T15:56:58.208Z,42.77
2018-11-20T15:58:39.715Z,43.87
2018-11-20T16:00:22.109Z,45.13
2018-11-20T16:02:04.493Z,41.20
2018-11-20T16:03:46.939Z,39.73
2018-11-20T16:05:29.309Z,37.60
2018-11-20T16:07:11.632Z,40.27
2018-11-20T16:08:53.988Z,40.00
2018-11-20T16:10:36.371Z,40.30
2018-11-20T16:12:18.721Z,42.80
2018-11-20T16:14:01.075Z,44.93
2018-11-20T16:15:43.436Z,42.67
2018-11-20T16:17:25.833Z,40.93
2018-11-20T16:19:08.205Z,39.93
2018-11-20T16:20:50.575Z,36.80
2018-11-20T16:22:32.916Z,38.33
2018-11-20T16:24:15.286Z,40.73
2018-11-20T16:25:57.634Z,38.17
2018-11-20T16:27:39.984Z,39.43
2018-11-20T16:29:22.365Z,42.67
2018-11-20T16:31:05.276Z,39.77
2018-11-20T16:32:47.592Z,35.57
2018-11-20T16:34:29.946Z,34.93
2018-11-20T16:36:12.320Z,32.73
2018-11-20T16:37:54.703Z,37.53
2018-11-20T16:39:37.029Z,35.07
2018-11-20T16:41:19.420Z,31.00
2018-11-20T16:43:01.789Z,33.83
2018-11-20T16:44:44.112Z,32.90
2018-11-20T16:46:26.478Z,31.83
2018-11-20T16:48:08.911Z,35.07
2018-11-20T16:49:44.883Z,31.83
2018-11-20T16:51:27.219Z,31.03
2018-11-20T16:53:09.602Z,34.17
2018-11-20T16:54:35.936Z,31.97
2018-11-20T16:56:02.368Z,30.57
2018-11-20T16:57:40.790Z,31.77
2018-11-20T16:59:22.733Z,30.27
2018-11-20T17:00:52.216Z,30.27
2018-11-20T17:02:18.787Z,31.67
2018-11-20T17:03:57.608Z,31.10
2018-11-20T17:05:19.804Z,29.27
2018-11-20T17:06:43.292Z,29.73
2018-11-20T17:08:05.739Z,29.17
2018-11-20T17:09:35.095Z,30.57
2018-11-20T17:10:56.261Z,30.03
2018-11-20T17:12:28.545Z,29.47
2018-11-20T17:13:46.224Z,28.77
2018-11-20T17:15:09.809Z,29.67
2018-11-20T17:16:36.101Z,27.80
2018-11-20T17:17:59.608Z,27.10
2018-11-20T17:19:25.867Z,26.30
2018-11-20T17:21:01.501Z,29.13
2018-11-20T17:22:23.713Z,32.63
2018-11-20T17:24:03.599Z,27.77
2018-11-20T17:25:40.940Z,29.00
2018-11-20T17:27:16.430Z,27.97
2018-11-20T17:28:38.725Z,27.73
2018-11-20T17:29:54.652Z,31.90
2018-11-20T17:31:21.098Z,28.33
2018-11-20T17:32:43.538Z,27.27
2018-11-20T17:34:09.887Z,28.73
2018-11-20T17:35:33.658Z,29.73
2018-11-20T17:37:06.383Z,28.30
2018-11-20T17:38:31.540Z,30.10
2018-11-20T17:39:53.725Z,28.30
2018-11-20T17:41:08.090Z,30.57
2018-11-20T17:42:30.369Z,30.23
2018-11-20T17:43:56.754Z,29.30
2018-11-20T17:45:26.462Z,31.03
2018-11-20T17:47:02.020Z,28.23
2018-11-20T17:48:25.545Z,33.63
2018-11-20T17:49:48.146Z,29.87
2018-11-20T17:51:23.869Z,31.57
2018-11-20T17:52:47.546Z,31.13
2018-11-20T17:54:09.985Z,28.77
2018-11-20T17:55:32.311Z,29.77
2018-11-20T17:57:04.843Z,32.10
2018-11-20T17:58:17.972Z,28.83
2018-11-20T17:59:33.073Z,32.87
2018-11-20T18:00:47.079Z,32.73
2018-11-20T18:02:08.983Z,27.70
2018-11-20T18:03:41.591Z,30.70
2018-11-20T18:04:52.112Z,31.87
2018-11-20T18:06:06.555Z,29.83
2018-11-20T18:07:30.248Z,31.53
2018-11-20T18:09:09.162Z,30.13
2018-11-20T18:10:39.314Z,30.63
2018-11-20T18:12:01.638Z,30.93
2018-11-20T18:13:24.001Z,28.70
2018-11-20T18:14:50.113Z,32.43
2018-11-20T18:16:15.575Z,30.90
2018-11-20T18:17:45.223Z,28.13
2018-11-20T18:19:15.313Z,34.07
2018-11-20T18:20:37.306Z,31.70
2018-11-20T18:22:03.862Z,31.07
2018-11-20T18:23:25.818Z,30.10
2018-11-20T18:25:01.345Z,31.40
2018-11-20T18:26:37.041Z,32.03
2018-11-20T18:27:59.145Z,32.33
2018-11-20T18:29:41.009Z,33.00
2018-11-20T18:31:04.647Z,31.47
2018-11-20T18:32:35.331Z,28.90
2018-11-20T18:34:09.852Z,28.87
2018-11-20T18:35:36.352Z,31.27
2018-11-20T18:36:58.333Z,36.40
2018-11-20T18:38:24.763Z,34.80
2018-11-20T18:39:50.649Z,31.47
2018-11-20T18:41:12.676Z,27.47
2018-11-20T18:42:35.963Z,30.77
2018-11-20T18:43:59.546Z,30.53
2018-11-20T18:45:23.217Z,34.73
2018-11-20T18:46:45.553Z,35.43
2018-11-20T18:48:07.952Z,31.57
2018-11-20T18:49:31.727Z,30.57
2018-11-20T18:50:58.268Z,33.73
2018-11-20T18:52:20.364Z,33.37
2018-11-20T18:53:52.535Z,32.83
2018-11-20T18:55:25.221Z,31.73
2018-11-20T18:56:42.424Z,30.57
2018-11-20T18:58:05.000Z,34.77
2018-11-20T18:59:27.273Z,33.10
2018-11-20T19:01:03.109Z,33.63
2018-11-20T19:02:27.702Z,29.77
2018-11-20T19:03:52.917Z,34.80
2018-11-20T19:05:15.693Z,31.97
2018-11-20T19:06:45.269Z,34.57
2018-11-20T19:08:02.615Z,32.50
2018-11-20T19:09:27.151Z,32.30
2018-11-20T19:10:49.502Z,29.70
2018-11-20T19:12:11.776Z,32.70
2018-11-20T19:13:34.078Z,29.07
2018-11-20T19:15:13.054Z,34.67
2018-11-20T19:16:35.238Z,27.53
2018-11-20T19:17:54.222Z,30.27
2018-11-20T19:19:36.299Z,27.37
2018-11-20T19:20:59.650Z,32.33
2018-11-20T19:22:26.858Z,29.77
2018-11-20T19:23:45.598Z,29.97
2018-11-20T19:25:11.947Z,29.47
2018-11-20T19:26:26.716Z,32.23
2018-11-20T19:27:52.969Z,32.17
2018-11-20T19:29:13.919Z,31.40
2018-11-20T19:30:37.527Z,30.37
2018-11-20T19:31:59.750Z,30.23
2018-11-20T19:33:22.264Z,29.27
2018-11-20T19:34:43.876Z,29.97
2018-11-20T19:36:22.659Z,34.10
2018-11-20T19:37:45.185Z,32.33
2018-11-20T19:39:17.788Z,32.10
2018-11-20T19:40:53.742Z,28.53
2018-11-20T19:42:26.247Z,29.40
2018-11-20T19:43:52.800Z,30.77
2018-11-20T19:45:13.096Z,31.97
2018-11-20T19:46:36.729Z,30.87
2018-11-20T19:48:05.907Z,29.63
2018-11-20T19:49:28.085Z,29.33
2018-11-20T19:50:57.924Z,28.63
2018-11-20T19:52:16.862Z,33.43
2018-11-20T19:53:55.454Z,33.93
2018-11-20T19:55:37.516Z,32.70
2018-11-20T19:57:01.848Z,29.57
2018-11-20T19:58:24.618Z,31.87
2018-11-20T20:00:00.361Z,30.50
2018-11-20T20:01:26.922Z,33.57
2018-11-20T20:02:49.499Z,32.27
2018-11-20T20:04:11.462Z,30.30
2018-11-20T20:05:33.595Z,30.53
2018-11-20T20:06:59.707Z,28.73
2018-11-20T20:08:25.553Z,30.67
2018-11-20T20:10:01.015Z,28.97
2018-11-20T20:11:24.465Z,32.47
2018-11-20T20:12:46.908Z,33.97
2018-11-20T20:14:13.273Z,32.17
2018-11-20T20:15:55.303Z,30.83
2018-11-20T20:17:17.608Z,32.30
2018-11-20T20:18:53.559Z,38.27
2018-11-20T20:20:15.827Z,32.30
2018-11-20T20:21:39.786Z,35.70
2018-11-20T20:23:02.190Z,28.20
2018-11-20T20:24:27.504Z,30.53
2018-11-20T20:25:50.250Z,31.20
2018-11-20T20:27:16.547Z,35.77
2018-11-20T20:28:35.438Z,36.40
2018-11-20T20:30:04.797Z,34.40
2018-11-20T20:31:31.863Z,33.63
2018-11-20T20:32:54.220Z,34.53
2018-11-20T20:34:10.310Z,28.60
2018-11-20T20:35:39.809Z,34.83